createdAt,value
2023-12-08T00:01:51.977Z,23.10
2023-12-08T00:04:19.674Z,27.20
2023-12-08T00:06:46.713Z,24.93
2023-12-08T00:09:14.793Z,23.37
2023-12-08T00:11:42.128Z,28.47
2023-12-08T00:14:09.159Z,23.03
2023-12-08T00:16:36.606Z,27.60
2023-12-08T00:19:04.026Z,21.53
2023-12-08T00:21:30.950Z,33.37
2023-12-08T00:23:57.910Z,22.17
2023-12-08T00:26:25.666Z,24.30
2023-12-08T00:28:52.993Z,24.20
2023-12-08T00:31:20.335Z,24.57
2023-12-08T00:33:47.768Z,26.80
2023-12-08T00:36:20.006Z,23.03
2023-12-08T00:38:47.016Z,25.93
2023-12-08T00:41:14.735Z,23.47
2023-12-08T00:43:42.235Z,23.80
2023-12-08T00:46:10.707Z,23.70
2023-12-08T00:48:38.751Z,21.37
2023-12-08T00:51:07.820Z,24.00
2023-12-08T00:53:35.217Z,27.40
2023-12-08T00:56:02.681Z,24.80
2023-12-08T00:58:30.124Z,25.83
2023-12-08T01:00:57.653Z,34.43
2023-12-08T01:03:25.483Z,27.63
2023-12-08T01:05:53.261Z,30.43
2023-12-08T01:08:20.598Z,28.37
2023-12-08T01:10:47.992Z,31.97
2023-12-08T01:13:15.367Z,29.63
2023-12-08T01:15:42.660Z,34.87
2023-12-08T01:18:10.460Z,33.07
2023-12-08T01:20:38.627Z,34.00
2023-12-08T01:23:06.015Z,36.70
2023-12-08T01:25:33.307Z,34.83
2023-12-08T01:28:00.639Z,37.57
2023-12-08T01:30:27.991Z,33.97
2023-12-08T01:32:55.469Z,40.57
2023-12-08T01:35:23.038Z,36.83
2023-12-08T01:37:50.410Z,39.03
2023-12-08T01:40:17.796Z,39.80
2023-12-08T01:42:45.813Z,35.13
2023-12-08T01:45:13.371Z,35.57
2023-12-08T01:47:42.672Z,31.10
2023-12-08T01:50:12.346Z,33.40
2023-12-08T01:52:39.871Z,33.80
2023-12-08T01:55:08.328Z,37.90
2023-12-08T01:57:36.052Z,32.97
2023-12-08T02:00:03.998Z,35.97
2023-12-08T02:02:36.035Z,31.20
2023-12-08T02:05:05.029Z,28.80
2023-12-08T02:07:33.433Z,25.03
2023-12-08T02:10:00.724Z,26.33
2023-12-08T02:12:28.144Z,27.27
2023-12-08T02:17:41.202Z,24.80
2023-12-08T02:20:13.078Z,24.60
2023-12-08T02:22:40.608Z,22.50
2023-12-08T02:25:08.153Z,27.97
2023-12-08T02:27:35.876Z,28.33
2023-12-08T02:30:03.752Z,27.77
2023-12-08T02:32:31.827Z,26.70
2023-12-08T02:35:02.593Z,33.27
2023-12-08T02:37:33.447Z,41.20
2023-12-08T02:40:01.871Z,33.17
2023-12-08T02:42:29.519Z,34.07
2023-12-08T02:44:57.106Z,24.47
2023-12-08T02:47:25.008Z,29.63
2023-12-08T02:49:52.562Z,30.50
2023-12-08T02:52:19.906Z,28.73
2023-12-08T02:54:47.193Z,35.47
2023-12-08T02:57:14.672Z,33.33
2023-12-08T02:59:42.297Z,27.93
2023-12-08T03:02:09.672Z,30.63
2023-12-08T03:04:37.039Z,34.07
2023-12-08T03:07:04.092Z,23.43
2023-12-08T03:09:34.340Z,25.10
2023-12-08T03:12:01.693Z,28.60
2023-12-08T03:14:29.098Z,27.37
2023-12-08T03:16:56.429Z,24.20
2023-12-08T03:19:23.852Z,24.10
2023-12-08T03:21:51.240Z,23.67
2023-12-08T03:24:18.640Z,22.90
2023-12-08T03:26:46.105Z,20.93
2023-12-08T03:29:16.751Z,20.83
2023-12-08T03:31:44.760Z,19.53
2023-12-08T03:34:12.259Z,19.03
2023-12-08T03:36:39.653Z,16.77
2023-12-08T03:39:07.114Z,18.73
2023-12-08T03:41:34.627Z,18.53
2023-12-08T03:44:02.033Z,18.23
2023-12-08T03:46:29.346Z,25.57
2023-12-08T03:48:56.777Z,18.87
2023-12-08T03:51:24.415Z,19.73
2023-12-08T03:53:51.900Z,20.70
2023-12-08T03:56:19.258Z,21.23
2023-12-08T03:58:46.561Z,20.70
2023-12-08T04:01:20.275Z,18.40
2023-12-08T04:03:48.077Z,16.63
2023-12-08T04:06:15.529Z,24.27
2023-12-08T04:08:43.028Z,17.43
2023-12-08T04:11:11.111Z,21.20
2023-12-08T04:13:39.712Z,20.57
2023-12-08T04:16:07.374Z,23.23
2023-12-08T04:18:36.124Z,19.93
2023-12-08T04:21:03.588Z,19.00
2023-12-08T04:23:31.035Z,22.10
2023-12-08T04:25:59.189Z,28.97
2023-12-08T04:28:26.809Z,22.37
2023-12-08T04:30:54.135Z,19.43
2023-12-08T04:33:21.958Z,22.53
2023-12-08T04:35:49.508Z,22.53
2023-12-08T04:38:16.906Z,21.87
2023-12-08T04:40:46.424Z,18.83
2023-12-08T04:43:14.985Z,21.80
2023-12-08T04:45:43.130Z,18.80
2023-12-08T04:49:06.562Z,19.60
2023-12-08T04:52:17.079Z,22.87
2023-12-08T04:54:52.019Z,21.23
2023-12-08T04:57:19.454Z,20.23
2023-12-08T04:59:46.979Z,21.53
2023-12-08T05:02:14.365Z,25.47
2023-12-08T05:04:43.039Z,23.73
2023-12-08T05:07:10.376Z,29.50
2023-12-08T05:09:37.865Z,26.20
2023-12-08T05:12:05.495Z,23.07
2023-12-08T05:14:33.097Z,20.30
2023-12-08T05:17:09.090Z,23.57
2023-12-08T05:19:44.000Z,24.23
2023-12-08T05:22:12.983Z,19.17
2023-12-08T05:24:40.395Z,29.00
2023-12-08T05:27:08.138Z,22.30
2023-12-08T05:29:35.546Z,22.57
2023-12-08T05:32:03.332Z,22.80
2023-12-08T05:34:30.930Z,20.13
2023-12-08T05:37:00.600Z,19.20
2023-12-08T05:39:28.143Z,25.77
2023-12-08T05:42:03.982Z,29.63
2023-12-08T05:44:31.356Z,20.20
2023-12-08T05:46:59.955Z,23.23
2023-12-08T05:49:29.356Z,24.17
2023-12-08T05:51:57.073Z,22.40
2023-12-08T05:54:24.526Z,25.17
2023-12-08T05:56:51.973Z,22.00
2023-12-08T05:59:19.411Z,28.27
2023-12-08T06:01:46.466Z,21.43
2023-12-08T06:04:13.768Z,26.97
2023-12-08T06:06:42.395Z,25.70
2023-12-08T06:09:11.043Z,23.37
2023-12-08T06:11:38.881Z,28.33
2023-12-08T06:14:07.622Z,26.23
2023-12-08T06:16:34.971Z,25.87
2023-12-08T06:19:03.107Z,25.27
2023-12-08T06:21:30.523Z,27.73
2023-12-08T06:23:57.878Z,27.53
2023-12-08T06:26:27.624Z,24.07
2023-12-08T06:28:55.234Z,21.93
2023-12-08T06:31:22.590Z,22.33
2023-12-08T06:34:01.359Z,22.17
2023-12-08T06:36:37.086Z,33.40
2023-12-08T06:39:06.635Z,25.83
2023-12-08T06:41:37.414Z,22.77
2023-12-08T06:44:06.078Z,22.10
2023-12-08T06:46:33.441Z,26.57
2023-12-08T06:49:00.917Z,25.00
2023-12-08T06:51:28.622Z,21.17
2023-12-08T06:53:56.327Z,24.83
2023-12-08T06:56:23.636Z,24.37
2023-12-08T06:58:51.023Z,26.70
2023-12-08T07:01:18.315Z,29.37
2023-12-08T07:03:45.968Z,23.30
2023-12-08T07:06:13.377Z,29.20
2023-12-08T07:08:40.876Z,27.50
2023-12-08T07:11:09.678Z,34.00
2023-12-08T07:13:37.250Z,24.53
2023-12-08T07:16:06.632Z,25.17
2023-12-08T07:18:34.351Z,28.63
2023-12-08T07:21:02.435Z,30.90
2023-12-08T07:23:30.124Z,31.70
2023-12-08T07:25:57.438Z,26.63
2023-12-08T07:28:25.000Z,31.77
2023-12-08T07:30:52.478Z,30.83
2023-12-08T07:33:20.354Z,29.70
2023-12-08T07:35:47.938Z,30.47
2023-12-08T07:38:15.491Z,31.90
2023-12-08T07:40:42.775Z,32.93
2023-12-08T07:43:10.257Z,33.77
2023-12-08T07:45:37.617Z,31.77
2023-12-08T07:48:05.620Z,33.57
2023-12-08T07:50:33.119Z,29.00
2023-12-08T07:53:01.000Z,32.80
2023-12-08T07:55:28.501Z,35.13
2023-12-08T07:57:55.826Z,39.77
2023-12-08T08:00:23.206Z,34.10
2023-12-08T08:02:50.551Z,36.43
2023-12-08T08:05:17.876Z,39.40
2023-12-08T08:07:45.179Z,38.17
2023-12-08T08:10:12.622Z,33.77
2023-12-08T08:12:40.001Z,40.33
2023-12-08T08:15:08.156Z,37.37
2023-12-08T08:17:35.768Z,39.57
2023-12-08T08:20:03.959Z,46.23
2023-12-08T08:22:32.971Z,34.13
2023-12-08T08:25:01.112Z,41.80
2023-12-08T08:27:29.723Z,48.10
2023-12-08T08:29:57.391Z,43.37
2023-12-08T08:32:24.713Z,41.57
2023-12-08T08:34:56.006Z,42.07
2023-12-08T08:37:25.331Z,38.07
2023-12-08T08:39:52.915Z,36.40
2023-12-08T08:42:20.929Z,37.20
2023-12-08T08:44:48.336Z,42.67
2023-12-08T08:47:15.700Z,46.20
2023-12-08T08:49:43.136Z,38.67
2023-12-08T08:52:10.473Z,44.13
2023-12-08T08:54:37.785Z,37.73
2023-12-08T08:57:06.175Z,38.73
2023-12-08T08:59:33.669Z,36.97
2023-12-08T09:02:01.023Z,32.97
2023-12-08T09:04:28.502Z,39.37
2023-12-08T09:06:57.466Z,39.17
2023-12-08T09:09:25.135Z,37.60
2023-12-08T09:11:52.685Z,34.60
2023-12-08T09:14:19.992Z,35.17
2023-12-08T09:16:48.246Z,42.27
2023-12-08T09:19:15.728Z,36.90
2023-12-08T09:21:52.104Z,38.53
2023-12-08T09:24:21.997Z,38.60
2023-12-08T09:26:49.348Z,43.23
2023-12-08T09:29:16.757Z,30.90
2023-12-08T09:31:43.993Z,41.23
2023-12-08T09:34:11.419Z,41.10
2023-12-08T09:36:39.513Z,33.67
2023-12-08T09:39:09.198Z,46.63
2023-12-08T09:41:39.528Z,41.00
2023-12-08T09:44:14.361Z,38.23
2023-12-08T09:46:46.171Z,31.87
2023-12-08T09:49:31.314Z,31.70
2023-12-08T09:51:58.841Z,35.13
2023-12-08T09:54:26.526Z,35.20
2023-12-08T09:56:55.502Z,32.57
2023-12-08T09:59:30.359Z,33.50
2023-12-08T10:01:57.833Z,37.80
2023-12-08T10:04:27.477Z,42.10
2023-12-08T10:06:57.191Z,32.07
2023-12-08T10:09:24.698Z,34.40
2023-12-08T10:11:52.086Z,33.33
2023-12-08T10:14:20.802Z,29.87
2023-12-08T10:16:48.389Z,31.53
2023-12-08T10:19:15.874Z,36.87
2023-12-08T10:21:43.455Z,36.53
2023-12-08T10:24:10.936Z,36.13
2023-12-08T10:26:38.363Z,29.50
2023-12-08T10:29:05.723Z,31.33
2023-12-08T10:31:33.114Z,31.20
2023-12-08T10:34:00.591Z,31.87
2023-12-08T10:36:28.035Z,31.83
2023-12-08T10:38:55.366Z,33.23
2023-12-08T10:41:23.476Z,30.50
2023-12-08T10:43:50.792Z,30.40
2023-12-08T10:46:18.411Z,35.33
2023-12-08T10:48:46.491Z,36.07
2023-12-08T10:51:15.721Z,31.97
2023-12-08T10:53:43.280Z,33.40
2023-12-08T10:56:16.794Z,37.17
2023-12-08T10:58:46.006Z,44.40
2023-12-08T11:01:15.680Z,36.80
2023-12-08T11:03:53.878Z,35.87
2023-12-08T11:06:34.495Z,31.93
2023-12-08T11:09:07.370Z,33.37
2023-12-08T11:11:38.478Z,34.57
2023-12-08T11:14:20.225Z,36.37
2023-12-08T11:17:05.326Z,29.23
2023-12-08T11:19:34.083Z,34.00
2023-12-08T11:22:01.737Z,31.83
2023-12-08T11:24:30.188Z,27.90
2023-12-08T11:26:57.616Z,33.37
2023-12-08T11:29:58.449Z,28.90
2023-12-08T11:32:45.081Z,31.70
2023-12-08T11:35:15.901Z,28.67
2023-12-08T11:37:45.824Z,34.27
2023-12-08T11:40:13.685Z,32.90
2023-12-08T11:42:44.267Z,34.03
2023-12-08T11:45:12.099Z,32.47
2023-12-08T11:47:39.845Z,33.23
2023-12-08T11:50:11.585Z,35.87
2023-12-08T11:52:39.141Z,37.33
2023-12-08T11:55:28.622Z,35.90
2023-12-08T11:58:01.155Z,30.90
2023-12-08T12:00:29.474Z,32.53
2023-12-08T12:02:58.313Z,32.93
2023-12-08T12:05:26.837Z,61.80
2023-12-08T12:07:55.594Z,33.37
2023-12-08T12:10:30.148Z,30.63
2023-12-08T12:13:10.949Z,31.97
2023-12-08T12:15:38.796Z,40.83
2023-12-08T12:18:06.657Z,28.37
2023-12-08T12:20:36.046Z,34.33
2023-12-08T12:23:03.700Z,36.00
2023-12-08T12:25:31.169Z,36.37
2023-12-08T12:28:01.437Z,34.63
2023-12-08T12:30:29.117Z,34.07
2023-12-08T12:32:58.465Z,36.80
2023-12-08T12:35:26.133Z,33.40
2023-12-08T12:37:55.486Z,33.93
2023-12-08T12:40:23.818Z,32.83
2023-12-08T12:42:52.345Z,37.83
2023-12-08T12:45:33.040Z,61.23
2023-12-08T12:48:08.868Z,43.77
2023-12-08T12:50:50.458Z,39.57
2023-12-08T12:53:18.493Z,26.17
2023-12-08T12:55:47.167Z,35.20
2023-12-08T12:58:33.566Z,37.57
2023-12-08T13:01:11.656Z,38.10
2023-12-08T13:03:46.288Z,31.83
2023-12-08T13:06:13.907Z,31.70
2023-12-08T13:08:45.228Z,38.63
2023-12-08T13:11:12.729Z,33.30
2023-12-08T13:13:40.047Z,32.07
2023-12-08T13:16:08.316Z,42.27
2023-12-08T13:18:37.297Z,36.50
2023-12-08T13:21:04.840Z,41.13
2023-12-08T13:23:32.192Z,38.10
2023-12-08T13:25:59.860Z,39.40
2023-12-08T13:28:27.320Z,36.57
2023-12-08T13:30:54.701Z,33.53
2023-12-08T13:33:23.460Z,34.17
2023-12-08T13:35:51.288Z,36.67
2023-12-08T13:38:18.642Z,41.80
2023-12-08T13:40:46.261Z,36.00
2023-12-08T13:43:13.899Z,37.30
2023-12-08T13:45:41.748Z,34.50
2023-12-08T13:48:09.955Z,35.80
2023-12-08T13:50:46.827Z,41.37
2023-12-08T13:53:18.462Z,36.87
2023-12-08T13:55:46.064Z,35.53
2023-12-08T13:58:13.628Z,35.67
2023-12-08T14:00:41.245Z,40.47
2023-12-08T14:03:08.645Z,38.47
2023-12-08T14:05:36.677Z,37.73
2023-12-08T14:08:04.035Z,37.40
2023-12-08T14:10:31.320Z,37.40
2023-12-08T14:12:59.196Z,44.93
2023-12-08T14:15:26.662Z,31.40
2023-12-08T14:17:54.132Z,34.40
2023-12-08T14:20:21.578Z,43.20
2023-12-08T14:22:50.005Z,41.87
2023-12-08T14:25:17.431Z,38.87
2023-12-08T14:27:45.009Z,43.93
2023-12-08T14:30:12.972Z,34.10
2023-12-08T14:32:41.691Z,44.10
2023-12-08T14:35:18.629Z,45.13
2023-12-08T14:37:50.805Z,39.07
2023-12-08T14:40:20.637Z,40.30
2023-12-08T14:42:48.340Z,40.60
2023-12-08T14:45:16.387Z,44.63
2023-12-08T14:47:43.887Z,38.43
2023-12-08T14:50:11.309Z,42.13
2023-12-08T14:52:39.207Z,48.13
2023-12-08T14:55:15.794Z,54.50
2023-12-08T14:57:44.929Z,47.27
2023-12-08T15:00:12.738Z,49.97
2023-12-08T15:02:41.548Z,45.67
2023-12-08T15:05:09.332Z,49.57
2023-12-08T15:07:36.716Z,50.93
2023-12-08T15:10:05.777Z,47.50
2023-12-08T15:12:35.681Z,40.27
2023-12-08T15:15:05.203Z,47.97
2023-12-08T15:17:34.443Z,50.63
2023-12-08T15:20:05.489Z,42.10
2023-12-08T15:22:33.323Z,51.40
2023-12-08T15:25:00.769Z,45.00
2023-12-08T15:27:28.898Z,51.73
2023-12-08T15:29:57.439Z,48.73
2023-12-08T15:32:24.812Z,50.13
2023-12-08T15:34:52.301Z,43.87
2023-12-08T15:37:19.648Z,51.97
2023-12-08T15:39:46.928Z,49.90
2023-12-08T15:42:14.421Z,55.63
2023-12-08T15:44:42.367Z,53.70
2023-12-08T15:47:09.764Z,48.77
2023-12-08T15:49:38.335Z,49.80
2023-12-08T15:52:05.768Z,60.63
2023-12-08T15:54:36.169Z,42.53
2023-12-08T15:57:04.251Z,57.00
2023-12-08T15:59:31.551Z,56.27
2023-12-08T16:02:01.044Z,54.37
2023-12-08T16:04:28.589Z,51.80
2023-12-08T16:06:56.220Z,57.53
2023-12-08T16:09:23.595Z,58.87
2023-12-08T16:11:50.993Z,55.13
2023-12-08T16:14:19.335Z,54.17
2023-12-08T16:16:46.948Z,59.47
2023-12-08T16:19:14.509Z,54.90
2023-12-08T16:21:42.067Z,61.73
2023-12-08T16:24:09.420Z,62.03
2023-12-08T16:26:37.727Z,47.93
2023-12-08T16:29:05.293Z,74.17
2023-12-08T16:31:33.952Z,63.73
2023-12-08T16:34:02.143Z,61.00
2023-12-08T16:36:29.581Z,62.00
2023-12-08T16:38:58.390Z,65.23
2023-12-08T16:41:26.183Z,69.83
2023-12-08T16:43:53.746Z,71.70
2023-12-08T16:46:21.131Z,70.60
2023-12-08T16:48:48.801Z,75.17
2023-12-08T16:51:16.343Z,71.13
2023-12-08T16:53:43.988Z,88.10
2023-12-08T16:56:11.934Z,65.50
2023-12-08T16:58:40.148Z,67.43
2023-12-08T17:01:08.042Z,72.90
2023-12-08T17:03:35.853Z,83.03
2023-12-08T17:06:05.154Z,69.87
2023-12-08T17:08:32.892Z,74.50
2023-12-08T17:11:00.899Z,67.70
2023-12-08T17:13:28.599Z,72.17
2023-12-08T17:15:59.489Z,69.57
2023-12-08T17:18:27.385Z,66.63
2023-12-08T17:20:55.529Z,77.90
2023-12-08T17:23:23.584Z,69.70
2023-12-08T17:25:51.642Z,71.87
2023-12-08T17:28:19.625Z,72.50
2023-12-08T17:30:47.497Z,73.80
2023-12-08T17:33:18.983Z,77.33
2023-12-08T17:35:49.599Z,67.90
2023-12-08T17:38:17.815Z,74.93
2023-12-08T17:40:45.469Z,72.83
2023-12-08T17:43:13.782Z,81.13
2023-12-08T17:45:41.949Z,65.03
2023-12-08T17:48:10.024Z,71.83
2023-12-08T17:50:38.346Z,68.00
2023-12-08T17:53:08.878Z,92.97
2023-12-08T17:55:37.190Z,86.17
2023-12-08T17:58:05.362Z,69.70
2023-12-08T18:00:33.575Z,83.50
2023-12-08T18:03:02.238Z,80.77
2023-12-08T18:05:30.177Z,81.73
2023-12-08T18:07:58.209Z,86.13
2023-12-08T18:10:26.304Z,88.87
2023-12-08T18:13:10.648Z,84.27
2023-12-08T18:15:38.861Z,90.07
2023-12-08T18:18:07.063Z,86.50
2023-12-08T18:20:35.086Z,78.23
2023-12-08T18:23:04.472Z,89.37
2023-12-08T18:25:32.782Z,84.70
2023-12-08T18:28:15.144Z,90.60
2023-12-08T18:30:51.152Z,89.37
2023-12-08T18:33:19.805Z,91.47
2023-12-08T18:35:48.958Z,90.53
2023-12-08T18:38:16.443Z,84.37
2023-12-08T18:40:43.858Z,87.73
2023-12-08T18:43:11.593Z,81.67
2023-12-08T18:45:39.008Z,96.73
2023-12-08T18:48:06.703Z,87.83
2023-12-08T18:50:34.260Z,98.00
2023-12-08T18:53:01.639Z,86.40
2023-12-08T18:55:29.128Z,80.57
2023-12-08T18:57:57.131Z,88.87
2023-12-08T19:00:24.642Z,88.90
2023-12-08T19:02:51.994Z,88.73
2023-12-08T19:05:19.454Z,79.33
2023-12-08T19:07:47.323Z,80.33
2023-12-08T19:10:14.734Z,83.30
2023-12-08T19:12:42.379Z,90.97
2023-12-08T19:15:10.229Z,83.93
2023-12-08T19:17:37.693Z,80.73
2023-12-08T19:20:05.332Z,83.50
2023-12-08T19:22:32.694Z,86.33
2023-12-08T19:25:00.072Z,83.53
2023-12-08T19:27:27.358Z,93.70
2023-12-08T19:29:54.738Z,109.53
2023-12-08T19:32:22.060Z,91.07
2023-12-08T19:34:50.461Z,97.67
2023-12-08T19:37:18.089Z,89.43
2023-12-08T19:39:46.728Z,97.10
2023-12-08T19:42:14.502Z,87.00
2023-12-08T19:44:41.921Z,85.93
2023-12-08T19:47:09.325Z,97.17
2023-12-08T19:49:36.695Z,81.17
2023-12-08T19:52:05.312Z,89.33
2023-12-08T19:54:32.700Z,101.03
2023-12-08T19:57:01.661Z,107.97
2023-12-08T19:59:29.122Z,99.50
2023-12-08T20:01:56.428Z,104.63
2023-12-08T20:04:24.477Z,111.63
2023-12-08T20:06:51.963Z,86.37
2023-12-08T20:09:20.914Z,93.10
2023-12-08T20:11:52.499Z,97.53
2023-12-08T20:14:19.816Z,98.90
2023-12-08T20:16:47.172Z,91.13
2023-12-08T20:19:14.641Z,114.17
2023-12-08T20:21:42.061Z,102.87
2023-12-08T20:24:10.141Z,105.20
2023-12-08T20:26:39.272Z,100.70
2023-12-08T20:29:07.815Z,115.77
2023-12-08T20:31:36.733Z,90.57
2023-12-08T20:34:10.403Z,118.20
2023-12-08T20:36:38.667Z,127.57
2023-12-08T20:39:07.114Z,110.23
2023-12-08T20:41:35.640Z,119.30
2023-12-08T20:44:03.042Z,98.80
2023-12-08T20:46:30.450Z,107.10
2023-12-08T20:48:58.024Z,97.80
2023-12-08T20:51:25.578Z,116.20
2023-12-08T20:53:53.706Z,112.13
2023-12-08T20:56:22.296Z,115.33
2023-12-08T20:58:49.758Z,99.83
2023-12-08T21:01:17.164Z,116.00
2023-12-08T21:03:44.729Z,99.23
2023-12-08T21:06:12.244Z,117.53
2023-12-08T21:08:39.720Z,113.50
2023-12-08T21:11:08.569Z,112.80
2023-12-08T21:13:36.106Z,111.87
2023-12-08T21:16:03.507Z,94.70
2023-12-08T21:18:31.225Z,101.93
2023-12-08T21:20:59.264Z,108.47
2023-12-08T21:23:28.321Z,115.97
2023-12-08T21:25:58.113Z,104.77
2023-12-08T21:28:26.502Z,110.73
2023-12-08T21:30:54.880Z,93.93
2023-12-08T21:33:22.639Z,105.20
2023-12-08T21:35:53.720Z,102.30
2023-12-08T21:38:21.098Z,111.43
2023-12-08T21:40:50.797Z,99.73
2023-12-08T21:43:18.279Z,96.63
2023-12-08T21:45:45.688Z,93.00
2023-12-08T21:48:13.489Z,109.03
2023-12-08T21:50:40.973Z,92.60
2023-12-08T21:53:08.913Z,97.00
2023-12-08T21:55:36.352Z,110.30
2023-12-08T21:58:03.709Z,106.90
2023-12-08T22:00:31.186Z,93.47
2023-12-08T22:02:58.972Z,103.90
2023-12-08T22:05:26.499Z,92.63
2023-12-08T22:07:54.952Z,91.20
2023-12-08T22:10:22.909Z,84.23
2023-12-08T22:12:50.325Z,86.43
2023-12-08T22:15:17.761Z,87.77
2023-12-08T22:17:45.154Z,96.53
2023-12-08T22:20:12.598Z,88.43
2023-12-08T22:22:45.199Z,80.63
2023-12-08T22:25:12.741Z,89.30
2023-12-08T22:27:40.136Z,100.90
2023-12-08T22:30:07.886Z,106.40
2023-12-08T22:32:36.124Z,89.97
2023-12-08T22:35:03.852Z,79.70
2023-12-08T22:37:31.879Z,92.73
2023-12-08T22:40:05.035Z,86.53
2023-12-08T22:42:39.346Z,78.47
2023-12-08T22:45:11.799Z,80.13
2023-12-08T22:47:45.216Z,87.80
2023-12-08T22:50:13.595Z,84.77
2023-12-08T22:52:42.276Z,79.37
2023-12-08T22:55:17.680Z,78.57
2023-12-08T22:57:46.086Z,82.00
2023-12-08T23:00:21.924Z,74.90
2023-12-08T23:02:53.822Z,97.57
2023-12-08T23:05:22.646Z,87.90
2023-12-08T23:07:51.022Z,81.00
2023-12-08T23:10:19.611Z,86.90
2023-12-08T23:12:50.877Z,75.93
2023-12-08T23:15:19.520Z,73.83
2023-12-08T23:17:51.234Z,77.93
2023-12-08T23:20:21.562Z,75.73
2023-12-08T23:22:50.166Z,73.43
2023-12-08T23:25:18.749Z,73.60
2023-12-08T23:27:46.766Z,72.80
2023-12-08T23:30:15.441Z,85.63
2023-12-08T23:32:44.847Z,72.07
2023-12-08T23:35:17.455Z,78.30
2023-12-08T23:37:51.994Z,64.33
2023-12-08T23:40:24.054Z,61.47
2023-12-08T23:42:52.491Z,67.10
2023-12-08T23:45:21.396Z,66.83
2023-12-08T23:47:53.080Z,63.80
2023-12-08T23:50:22.764Z,63.50
2023-12-08T23:52:51.579Z,59.80
2023-12-08T23:55:22.306Z,56.73
2023-12-08T23:57:54.269Z,48.00
